createdAt,value
2023-01-08T00:04:35.782Z,3.83
2023-01-08T00:09:43.791Z,5.53
2023-01-08T00:14:47.848Z,6.13
2023-01-08T00:19:49.526Z,4.77
2023-01-08T00:24:53.864Z,4.30
2023-01-08T00:29:58.035Z,4.00
2023-01-08T00:35:01.495Z,6.23
2023-01-08T00:40:03.720Z,4.43
2023-01-08T00:45:08.171Z,11.27
2023-01-08T00:50:13.243Z,6.07
2023-01-08T00:55:15.004Z,4.93
2023-01-08T01:00:16.930Z,5.43
2023-01-08T01:05:20.918Z,5.03
2023-01-08T01:10:24.974Z,6.03
2023-01-08T01:15:26.704Z,6.60
2023-01-08T01:20:33.056Z,7.57
2023-01-08T01:25:40.655Z,6.90
2023-01-08T01:30:42.466Z,7.67
2023-01-08T01:35:46.856Z,5.67
2023-01-08T01:40:50.914Z,5.40
2023-01-08T01:45:52.699Z,5.10
2023-01-08T01:50:56.777Z,6.47
2023-01-08T01:56:01.589Z,6.73
2023-01-08T02:01:06.011Z,6.10
2023-01-08T02:06:13.753Z,6.60
2023-01-08T02:11:26.722Z,5.13
2023-01-08T02:16:39.414Z,5.20
2023-01-08T02:21:54.282Z,6.10
2023-01-08T02:26:59.629Z,4.80
2023-01-08T02:32:02.158Z,5.93
2023-01-08T02:37:06.585Z,6.23
2023-01-08T02:42:23.039Z,8.63
2023-01-08T02:47:40.174Z,5.27
2023-01-08T02:52:54.866Z,7.40
2023-01-08T02:57:57.629Z,6.20
2023-01-08T03:03:28.083Z,4.27
2023-01-08T03:08:30.373Z,4.77
2023-01-08T03:13:46.558Z,5.13
2023-01-08T03:18:54.928Z,5.50
2023-01-08T03:23:57.236Z,4.63
2023-01-08T03:29:01.473Z,5.53
2023-01-08T03:34:05.020Z,5.67
2023-01-08T03:39:17.480Z,3.33
2023-01-08T03:44:19.167Z,3.10
2023-01-08T03:49:23.296Z,9.10
2023-01-08T03:54:35.962Z,7.47
2023-01-08T03:59:39.826Z,9.17
2023-01-08T04:04:41.886Z,7.93
2023-01-08T04:09:48.927Z,8.70
2023-01-08T04:14:50.673Z,7.90
2023-01-08T04:19:57.050Z,5.37
2023-01-08T04:25:00.915Z,8.50
2023-01-08T04:30:07.872Z,8.17
2023-01-08T04:35:12.179Z,9.27
2023-01-08T04:40:18.767Z,5.50
2023-01-08T04:45:27.798Z,8.13
2023-01-08T04:50:32.066Z,6.97
2023-01-08T04:55:37.091Z,8.37
2023-01-08T05:00:40.309Z,5.97
2023-01-08T05:05:42.369Z,6.13
2023-01-08T05:10:51.299Z,7.17
2023-01-08T05:15:58.206Z,6.33
2023-01-08T05:21:02.036Z,4.93
2023-01-08T05:26:05.079Z,6.43
2023-01-08T05:31:11.680Z,6.30
2023-01-08T05:36:14.045Z,6.77
2023-01-08T05:41:18.144Z,7.53
2023-01-08T05:46:23.118Z,6.00
2023-01-08T05:51:28.072Z,6.93
2023-01-08T05:56:34.694Z,9.20
2023-01-08T06:01:38.894Z,7.90
2023-01-08T06:06:42.721Z,5.93
2023-01-08T06:11:47.250Z,7.40
2023-01-08T06:16:51.055Z,9.43
2023-01-08T06:21:55.365Z,7.00
2023-01-08T06:26:59.339Z,7.97
2023-01-08T06:32:05.851Z,11.53
2023-01-08T06:37:07.977Z,8.23
2023-01-08T06:42:14.328Z,8.60
2023-01-08T06:47:16.043Z,8.60
2023-01-08T06:52:20.275Z,10.13
2023-01-08T06:57:26.710Z,12.03
2023-01-08T07:02:30.881Z,11.13
2023-01-08T07:07:35.909Z,12.30
2023-01-08T07:12:42.473Z,12.17
2023-01-08T07:17:46.331Z,14.13
2023-01-08T07:22:48.111Z,16.93
2023-01-08T07:27:50.917Z,11.53
2023-01-08T07:32:55.381Z,11.00
2023-01-08T07:37:59.269Z,12.60
2023-01-08T07:43:04.672Z,12.37
2023-01-08T07:48:07.004Z,10.80
2023-01-08T07:53:08.986Z,12.80
2023-01-08T07:58:13.052Z,11.57
2023-01-08T08:03:15.055Z,8.90
2023-01-08T08:08:20.159Z,9.33
2023-01-08T08:13:22.851Z,9.93
2023-01-08T08:18:27.905Z,8.90
2023-01-08T08:23:33.149Z,9.87
2023-01-08T08:28:40.903Z,6.43
2023-01-08T08:33:46.236Z,9.40
2023-01-08T08:38:50.149Z,10.17
2023-01-08T08:43:51.867Z,8.47
2023-01-08T08:48:55.831Z,8.10
2023-01-08T08:53:57.509Z,6.23
2023-01-08T08:59:02.822Z,7.50
2023-01-08T09:04:04.545Z,7.43
2023-01-08T09:09:19.027Z,6.23
2023-01-08T09:14:21.607Z,7.90
2023-01-08T09:19:25.813Z,9.20
2023-01-08T09:24:32.378Z,6.43
2023-01-08T09:29:36.462Z,11.93
2023-01-08T09:34:40.823Z,9.10
2023-01-08T09:39:48.284Z,10.00
2023-01-08T09:44:57.257Z,7.63
2023-01-08T09:50:07.561Z,8.50
2023-01-08T09:55:14.061Z,9.87
2023-01-08T10:00:22.554Z,8.87
2023-01-08T10:05:29.904Z,7.60
2023-01-08T10:10:39.106Z,8.00
2023-01-08T10:15:41.545Z,7.13
2023-01-08T10:20:45.708Z,10.47
2023-01-08T10:26:04.517Z,6.30
2023-01-08T10:31:14.899Z,7.97
2023-01-08T10:36:27.754Z,9.40
2023-01-08T10:41:29.889Z,9.20
2023-01-08T10:46:43.991Z,8.67
2023-01-08T10:51:53.539Z,7.97
2023-01-08T10:56:55.325Z,6.27
2023-01-08T11:02:00.155Z,5.17
2023-01-08T11:07:05.070Z,9.43
2023-01-08T11:12:44.405Z,5.33
2023-01-08T11:17:49.784Z,8.00
2023-01-08T11:22:51.802Z,10.83
2023-01-08T11:27:54.840Z,8.70
2023-01-08T11:33:00.651Z,10.05
2023-01-08T11:38:03.509Z,8.40
2023-01-08T11:43:08.294Z,6.13
2023-01-08T11:48:36.085Z,7.90
2023-01-08T11:53:48.644Z,8.07
2023-01-08T11:59:05.192Z,9.35
2023-01-08T12:04:25.206Z,6.32
2023-01-08T12:09:40.415Z,11.20
2023-01-08T12:15:17.073Z,7.55
2023-01-08T12:20:43.096Z,10.40
2023-01-08T12:25:55.351Z,6.55
2023-01-08T12:31:09.017Z,8.70
2023-01-08T12:36:23.380Z,9.30
2023-01-08T12:41:29.964Z,10.15
2023-01-08T12:46:39.334Z,7.50
2023-01-08T12:51:56.839Z,11.55
2023-01-08T12:57:07.928Z,11.15
2023-01-08T13:02:28.327Z,8.75
2023-01-08T13:07:40.534Z,8.95
2023-01-08T13:12:43.732Z,12.30
2023-01-08T13:17:49.980Z,16.67
2023-01-08T13:22:54.341Z,12.25
2023-01-08T13:27:59.729Z,12.15
2023-01-08T13:33:01.905Z,13.57
2023-01-08T13:38:16.129Z,10.65
2023-01-08T13:43:27.828Z,10.45
2023-01-08T13:48:37.722Z,9.88
2023-01-08T13:53:44.367Z,11.85
2023-01-08T13:58:54.144Z,13.32
2023-01-08T14:03:57.521Z,10.52
2023-01-08T14:09:07.208Z,11.25
2023-01-08T14:14:20.361Z,13.90
2023-01-08T14:19:24.279Z,9.52
2023-01-08T14:24:28.459Z,12.20
2023-01-08T14:29:34.605Z,9.18
2023-01-08T14:34:39.663Z,13.23
2023-01-08T14:39:43.757Z,16.73
2023-01-08T14:44:48.731Z,14.63
2023-01-08T14:49:56.068Z,14.43
2023-01-08T14:55:03.213Z,11.70
2023-01-08T15:00:05.929Z,14.60
2023-01-08T15:05:18.503Z,9.70
2023-01-08T15:10:49.724Z,8.47
2023-01-08T15:16:03.662Z,13.20
2023-01-08T15:21:06.995Z,14.23
2023-01-08T15:26:16.264Z,17.77
2023-01-08T15:31:46.896Z,14.93
2023-01-08T15:36:48.724Z,17.33
2023-01-08T15:42:13.925Z,11.47
2023-01-08T15:47:15.649Z,13.20
2023-01-08T15:52:18.532Z,15.10
2023-01-08T15:57:22.110Z,14.83
2023-01-08T16:02:25.722Z,16.17
2023-01-08T16:07:30.558Z,11.20
2023-01-08T16:12:37.095Z,21.07
2023-01-08T16:17:41.128Z,14.70
2023-01-08T16:22:43.741Z,15.67
2023-01-08T16:27:50.281Z,11.53
2023-01-08T16:32:55.298Z,17.07
2023-01-08T16:37:57.134Z,9.07
2023-01-08T16:43:04.586Z,11.83
2023-01-08T16:48:08.790Z,8.97
2023-01-08T16:53:11.599Z,8.67
2023-01-08T16:58:15.910Z,8.60
2023-01-08T17:03:17.989Z,12.73
2023-01-08T17:08:22.596Z,13.03
2023-01-08T17:13:28.804Z,9.83
2023-01-08T17:18:35.577Z,15.13
2023-01-08T17:23:37.565Z,18.20
2023-01-08T17:28:40.434Z,16.73
2023-01-08T17:33:46.055Z,18.40
2023-01-08T17:38:49.677Z,16.93
2023-01-08T17:43:51.480Z,19.97
2023-01-08T17:48:53.231Z,18.13
2023-01-08T17:53:58.082Z,15.30
2023-01-08T17:59:02.821Z,14.57
2023-01-08T18:04:07.047Z,16.87
2023-01-08T18:09:14.882Z,18.57
2023-01-08T18:14:16.791Z,12.97
2023-01-08T18:19:19.985Z,13.63
2023-01-08T18:24:24.404Z,11.43
2023-01-08T18:29:28.658Z,19.43
2023-01-08T18:34:31.423Z,15.77
2023-01-08T18:39:35.407Z,18.23
2023-01-08T18:44:40.552Z,14.37
2023-01-08T18:49:44.817Z,11.57
2023-01-08T18:54:49.051Z,12.10
2023-01-08T18:59:50.937Z,13.20
2023-01-08T19:04:55.303Z,14.50
2023-01-08T19:09:59.192Z,12.73
2023-01-08T19:15:01.144Z,13.40
2023-01-08T19:20:04.076Z,12.13
2023-01-08T19:25:15.027Z,33.90
2023-01-08T19:30:17.230Z,31.90
2023-01-08T19:35:21.205Z,55.93
2023-01-08T19:40:22.983Z,45.70
2023-01-08T19:45:29.528Z,30.70
2023-01-08T19:50:34.195Z,42.37
2023-01-08T19:55:40.468Z,40.87
2023-01-08T20:00:44.710Z,41.60
2023-01-08T20:05:48.971Z,36.17
2023-01-08T20:10:50.771Z,33.43
2023-01-08T20:15:57.292Z,30.20
2023-01-08T20:21:11.481Z,25.00
2023-01-08T20:26:18.037Z,32.87
2023-01-08T20:31:23.464Z,26.20
2023-01-08T20:36:28.245Z,21.00
2023-01-08T20:41:30.266Z,14.30
2023-01-08T20:46:32.975Z,13.80
2023-01-08T20:51:36.874Z,10.50
2023-01-08T20:56:42.091Z,9.97
2023-01-08T21:01:43.927Z,10.07
2023-01-08T21:06:45.715Z,9.70
2023-01-08T21:11:52.314Z,11.67
2023-01-08T21:16:55.170Z,10.93
2023-01-08T21:21:59.900Z,15.07
2023-01-08T21:27:06.948Z,8.90
2023-01-08T21:32:14.029Z,9.77
2023-01-08T21:37:18.582Z,8.83
2023-01-08T21:42:38.862Z,8.87
2023-01-08T21:47:43.344Z,11.80
2023-01-08T21:53:06.110Z,9.83
2023-01-08T21:58:10.705Z,9.03
2023-01-08T22:03:12.399Z,10.33
2023-01-08T22:08:18.438Z,8.60
2023-01-08T22:13:22.717Z,7.63
2023-01-08T22:18:24.360Z,7.13
2023-01-08T22:23:26.107Z,9.00
2023-01-08T22:28:35.010Z,8.73
2023-01-08T22:33:37.823Z,7.80
2023-01-08T22:38:45.377Z,6.17
2023-01-08T22:43:56.558Z,9.20
2023-01-08T22:49:02.962Z,4.93
2023-01-08T22:54:04.690Z,5.77
2023-01-08T22:59:06.618Z,6.50
2023-01-08T23:04:13.133Z,8.70
2023-01-08T23:09:15.128Z,12.17
2023-01-08T23:14:24.076Z,7.53
2023-01-08T23:19:25.783Z,5.33
2023-01-08T23:24:32.710Z,5.87
2023-01-08T23:29:34.470Z,7.90
2023-01-08T23:34:40.587Z,6.40
2023-01-08T23:39:44.431Z,5.43
2023-01-08T23:44:46.133Z,6.60
2023-01-08T23:49:53.118Z,6.60
2023-01-08T23:54:57.066Z,8.00
